Time;durP1;ratioP1;P1;durP2;ratioP2;P2;SDS_P1;SDS_P2;PMS_P1;PMS_P2;Temp;Humidity;BMP_temperature;BMP_pressure;BME280_temperature;BME280_humidity;BME280_pressure;Samples;Min_cycle;Max_cycle;Signal;HPM_P1;HPM_P2
2023/09/21 00:01:03;;;;;;;9.40;3.90;;;14.60;99.90;;;;;;4975891;28;20030;-80
2023/09/21 00:03:30;;;;;;;6.40;3.78;;;14.50;99.90;;;;;;4974601;28;20478;-80
2023/09/21 00:05:56;;;;;;;8.95;4.40;;;14.50;99.90;;;;;;4969141;28;20054;-80
2023/09/21 00:08:23;;;;;;;7.55;4.10;;;14.50;99.90;;;;;;4976133;28;20023;-80
2023/09/21 00:10:50;;;;;;;5.85;4.22;;;14.50;99.90;;;;;;4975847;28;20023;-80
2023/09/21 00:13:20;;;;;;;6.85;5.00;;;14.50;99.90;;;;;;4975997;28;20023;-80
2023/09/21 00:15:46;;;;;;;10.93;5.47;;;14.50;99.90;;;;;;4974997;28;20033;-79
2023/09/21 00:18:13;;;;;;;8.00;5.18;;;14.50;99.90;;;;;;4975935;28;20022;-80
2023/09/21 00:23:08;;;;;;;7.55;4.25;;;14.40;99.90;;;;;;4977535;28;20493;-80
2023/09/21 00:25:34;;;;;;;6.20;4.03;;;14.40;99.90;;;;;;4976065;28;20038;-80
2023/09/21 00:28:04;;;;;;;6.88;3.80;;;14.40;99.90;;;;;;4976115;28;20042;-80
2023/09/21 00:30:30;;;;;;;5.75;3.85;;;14.40;99.90;;;;;;4968242;28;20026;-80
2023/09/21 00:32:55;;;;;;;8.90;3.95;;;14.40;99.90;;;;;;4977124;28;20027;-79
2023/09/21 00:35:23;;;;;;;7.40;4.20;;;14.40;99.90;;;;;;4976171;28;20026;-80
2023/09/21 00:37:49;;;;;;;6.07;4.07;;;14.40;99.90;;;;;;4969475;28;20037;-80
2023/09/21 00:40:17;;;;;;;7.97;4.88;;;14.30;99.90;;;;;;4972421;28;20027;-80
2023/09/21 00:42:44;;;;;;;9.13;4.85;;;14.30;99.90;;;;;;4976586;28;20057;-80
2023/09/21 00:45:10;;;;;;;6.43;4.00;;;14.30;99.90;;;;;;4975985;28;20058;-80
2023/09/21 00:47:41;;;;;;;5.65;3.75;;;14.30;99.90;;;;;;4976254;28;20437;-80
2023/09/21 00:50:09;;;;;;;6.05;4.05;;;14.30;99.90;;;;;;4976405;28;20561;-79
2023/09/21 00:52:36;;;;;;;7.28;4.30;;;14.30;99.90;;;;;;4976968;28;20486;-80
2023/09/21 00:55:03;;;;;;;8.95;3.83;;;14.20;99.90;;;;;;4976290;28;20034;-79
2023/09/21 00:57:29;;;;;;;7.18;4.35;;;14.20;99.90;;;;;;4976145;28;20104;-80
2023/09/21 00:59:54;;;;;;;9.20;4.13;;;14.20;99.90;;;;;;4976404;28;20027;-80
2023/09/21 01:02:22;;;;;;;7.78;4.30;;;14.10;99.90;;;;;;4976671;28;20027;-79
2023/09/21 01:04:47;;;;;;;6.97;4.00;;;14.10;99.90;;;;;;4975787;28;20026;-80
2023/09/21 01:07:20;;;;;;;9.20;4.07;;;14.10;99.90;;;;;;4976279;28;20031;-79
2023/09/21 01:09:46;;;;;;;6.95;4.13;;;14.10;99.90;;;;;;4975904;28;20034;-80
2023/09/21 01:12:13;;;;;;;8.02;3.85;;;14.10;99.90;;;;;;4975547;28;20027;-79
2023/09/21 01:14:39;;;;;;;7.25;4.20;;;14.10;99.90;;;;;;4975104;28;20023;-80
2023/09/21 01:17:04;;;;;;;5.55;3.33;;;14.00;99.90;;;;;;4975547;28;20134;-80
2023/09/21 01:19:30;;;;;;;6.22;3.40;;;14.00;99.90;;;;;;4974608;28;20042;-80
2023/09/21 01:21:59;;;;;;;6.07;3.60;;;14.00;99.90;;;;;;4974861;28;20155;-80
2023/09/21 01:24:27;;;;;;;6.68;4.35;;;13.90;99.90;;;;;;4974199;28;20030;-80
2023/09/21 01:26:52;;;;;;;9.20;4.07;;;13.90;99.90;;;;;;4974815;28;20023;-80
2023/09/21 01:29:18;;;;;;;5.32;3.63;;;13.90;99.90;;;;;;4975273;28;20046;-80
2023/09/21 01:31:45;;;;;;;5.50;4.20;;;14.00;99.90;;;;;;4974839;28;20031;-80
2023/09/21 01:34:11;;;;;;;7.57;3.80;;;13.90;99.90;;;;;;4973985;28;20027;-80
2023/09/21 01:36:37;;;;;;;6.75;3.63;;;13.90;99.90;;;;;;4974300;28;20034;-80
2023/09/21 01:39:08;;;;;;;5.90;3.35;;;13.80;99.90;;;;;;4974422;28;20045;-79
2023/09/21 01:41:34;;;;;;;6.07;3.17;;;13.80;99.90;;;;;;4973808;28;20125;-79
2023/09/21 01:43:59;;;;;;;9.55;3.05;;;13.80;99.90;;;;;;4974308;28;20109;-80
2023/09/21 01:46:26;;;;;;;6.70;4.10;;;13.80;99.90;;;;;;4973866;28;20121;-80
2023/09/21 01:48:53;;;;;;;4.10;3.35;;;13.80;99.90;;;;;;4973997;28;20022;-80
2023/09/21 01:51:19;;;;;;;6.18;3.70;;;13.80;99.90;;;;;;4967196;28;20031;-79
2023/09/21 01:53:45;;;;;;;4.40;3.22;;;13.80;99.90;;;;;;4976400;28;20019;-83
2023/09/21 01:56:11;;;;;;;6.60;3.83;;;13.80;99.90;;;;;;4976638;28;20388;-82
2023/09/21 01:58:37;;;;;;;5.57;3.40;;;13.80;99.90;;;;;;4977053;28;20023;-82
2023/09/21 02:01:03;;;;;;;7.22;3.22;;;13.80;99.90;;;;;;4977330;28;20045;-82
2023/09/21 02:03:31;;;;;;;4.45;3.25;;;13.80;99.90;;;;;;4976889;28;20100;-82
2023/09/21 02:05:59;;;;;;;5.38;3.25;;;13.80;99.90;;;;;;4976104;28;20130;-82
2023/09/21 02:08:25;;;;;;;3.80;3.10;;;13.90;99.90;;;;;;4977215;28;20105;-82
2023/09/21 02:10:51;;;;;;;8.18;3.53;;;13.90;99.90;;;;;;4974144;28;20019;-79
2023/09/21 02:13:17;;;;;;;8.57;3.40;;;13.90;99.90;;;;;;4974518;28;20045;-80
2023/09/21 02:15:43;;;;;;;5.32;3.47;;;13.80;99.90;;;;;;4973731;28;20533;-79
2023/09/21 02:18:10;;;;;;;5.90;3.13;;;13.80;99.90;;;;;;4974022;28;20062;-80
2023/09/21 02:20:44;;;;;;;7.45;3.25;;;13.80;99.90;;;;;;4973541;28;20466;-79
2023/09/21 02:23:10;;;;;;;7.80;3.83;;;13.80;99.90;;;;;;4973622;28;20050;-79
2023/09/21 02:25:39;;;;;;;6.82;3.40;;;13.80;99.90;;;;;;4972945;28;20047;-79
2023/09/21 02:28:09;;;;;;;9.00;3.35;;;13.80;99.90;;;;;;4969677;28;21024;-79
2023/09/21 02:30:36;;;;;;;5.07;3.22;;;13.80;99.90;;;;;;4973696;28;20027;-79
2023/09/21 02:33:04;;;;;;;4.63;3.53;;;13.80;99.90;;;;;;4974199;28;20027;-79
2023/09/21 02:35:33;;;;;;;7.65;3.58;;;13.90;99.90;;;;;;4972682;28;20054;-79
2023/09/21 02:37:59;;;;;;;4.93;3.55;;;13.90;99.90;;;;;;4973832;28;20027;-79
2023/09/21 02:40:25;;;;;;;5.95;3.20;;;13.90;99.90;;;;;;4973387;28;20019;-79
2023/09/21 02:42:52;;;;;;;4.53;3.40;;;13.90;99.90;;;;;;4973903;28;20363;-79
2023/09/21 02:45:20;;;;;;;5.70;3.47;;;13.90;99.90;;;;;;4972964;28;20023;-79
2023/09/21 02:47:47;;;;;;;6.82;3.63;;;13.90;99.90;;;;;;4973718;28;20042;-79
2023/09/21 02:50:14;;;;;;;4.85;3.97;;;13.90;99.90;;;;;;4973134;28;20030;-79
2023/09/21 02:52:46;;;;;;;6.65;3.80;;;13.90;99.90;;;;;;4973499;28;20109;-80
2023/09/21 02:55:20;;;;;;;6.60;4.20;;;13.90;99.90;;;;;;4972248;28;20482;-79
2023/09/21 02:57:47;;;;;;;5.45;3.60;;;13.80;99.90;;;;;;4973609;28;20022;-80
2023/09/21 03:00:19;;;;;;;8.25;4.00;;;13.80;99.90;;;;;;4973413;28;20045;-79
2023/09/21 03:02:45;;;;;;;5.47;3.78;;;13.90;99.90;;;;;;4973951;28;20429;-79
2023/09/21 03:05:11;;;;;;;5.85;3.55;;;13.90;99.90;;;;;;4972478;28;20101;-79
2023/09/21 03:07:41;;;;;;;5.13;3.65;;;13.80;99.90;;;;;;4972895;28;20027;-79
2023/09/21 03:10:09;;;;;;;7.18;3.35;;;13.80;99.90;;;;;;4973855;28;20524;-79
2023/09/21 03:12:37;;;;;;;7.03;3.83;;;13.80;99.90;;;;;;4976666;28;20055;-79
2023/09/21 03:15:06;;;;;;;4.65;3.65;;;13.80;99.90;;;;;;4976204;28;20203;-80
2023/09/21 03:17:33;;;;;;;4.80;3.15;;;13.80;99.90;;;;;;4976395;28;20029;-79
2023/09/21 03:20:00;;;;;;;10.88;3.90;;;13.80;99.90;;;;;;4975867;28;20105;-80
2023/09/21 03:22:26;;;;;;;10.50;4.03;;;13.80;99.90;;;;;;4977270;28;20034;-79
2023/09/21 03:24:54;;;;;;;7.50;4.13;;;13.70;99.90;;;;;;4976323;28;20019;-79
2023/09/21 03:27:23;;;;;;;7.72;3.50;;;13.70;99.90;;;;;;4976802;28;20035;-79
2023/09/21 03:29:49;;;;;;;5.55;3.30;;;13.70;99.90;;;;;;4976312;28;20023;-79
2023/09/21 03:32:15;;;;;;;7.82;3.10;;;13.60;99.90;;;;;;4976434;28;20571;-79
2023/09/21 03:34:40;;;;;;;5.40;3.60;;;13.60;99.90;;;;;;4976319;28;20075;-80
2023/09/21 03:37:07;;;;;;;5.13;3.10;;;13.50;99.90;;;;;;4976809;28;20026;-79
2023/09/21 03:39:33;;;;;;;5.60;3.00;;;13.50;99.90;;;;;;4976282;28;20031;-79
2023/09/21 03:41:58;;;;;;;7.40;3.22;;;13.50;99.90;;;;;;4975529;28;20034;-80
2023/09/21 03:44:24;;;;;;;6.93;3.50;;;13.50;99.90;;;;;;4975259;28;20429;-79
2023/09/21 03:46:49;;;;;;;7.63;3.78;;;13.40;99.90;;;;;;4975883;28;20441;-79
2023/09/21 03:49:15;;;;;;;5.47;3.30;;;13.40;99.90;;;;;;4975582;28;20019;-79
2023/09/21 03:51:40;;;;;;;4.28;3.30;;;13.40;99.90;;;;;;4974951;28;20026;-79
2023/09/21 03:54:07;;;;;;;3.78;3.20;;;13.40;99.90;;;;;;4974385;28;20070;-79
2023/09/21 03:56:36;;;;;;;8.30;3.60;;;13.30;99.90;;;;;;4973529;28;20023;-79
2023/09/21 03:59:02;;;;;;;5.10;3.40;;;13.30;99.90;;;;;;4975367;28;20145;-79
2023/09/21 04:01:29;;;;;;;6.40;3.55;;;13.30;99.90;;;;;;4974664;28;20111;-79
2023/09/21 04:03:55;;;;;;;4.15;3.25;;;13.30;99.90;;;;;;4974755;28;20027;-79
2023/09/21 04:06:21;;;;;;;3.83;3.00;;;13.20;99.90;;;;;;4975205;28;20154;-79
2023/09/21 04:08:47;;;;;;;6.72;3.10;;;13.20;99.90;;;;;;4975155;28;20413;-79
2023/09/21 04:11:13;;;;;;;5.72;3.47;;;13.20;99.90;;;;;;4974745;28;20114;-79
2023/09/21 04:13:38;;;;;;;4.47;3.40;;;13.20;99.90;;;;;;4974817;28;20070;-79
2023/09/21 04:16:05;;;;;;;4.57;3.80;;;13.20;99.90;;;;;;4974057;28;20130;-79
2023/09/21 04:18:31;;;;;;;6.40;3.38;;;13.20;99.90;;;;;;4975125;28;20063;-79
2023/09/21 04:20:57;;;;;;;5.53;3.30;;;13.20;99.90;;;;;;4974377;28;20058;-79
2023/09/21 04:23:24;;;;;;;5.35;3.30;;;13.20;99.90;;;;;;4974709;28;20026;-79
2023/09/21 04:25:50;;;;;;;6.78;4.10;;;13.10;99.90;;;;;;4973722;28;20155;-79
2023/09/21 04:28:15;;;;;;;7.88;3.70;;;13.20;99.90;;;;;;4975010;28;20046;-79
2023/09/21 04:30:41;;;;;;;4.72;3.10;;;13.10;99.90;;;;;;4974698;28;20106;-79
2023/09/21 04:33:06;;;;;;;4.85;3.38;;;13.10;99.90;;;;;;4977947;28;20094;-82
2023/09/21 04:35:32;;;;;;;8.48;3.50;;;13.10;99.90;;;;;;4973074;28;20038;-79
2023/09/21 04:37:58;;;;;;;7.32;3.30;;;13.00;99.90;;;;;;4974942;28;20031;-79
2023/09/21 04:40:26;;;;;;;6.93;3.47;;;13.10;99.90;;;;;;4964251;28;20030;-79
2023/09/21 04:42:51;;;;;;;6.97;4.03;;;13.00;99.90;;;;;;4970691;28;20093;-79
2023/09/21 04:45:18;;;;;;;8.95;4.50;;;13.00;99.90;;;;;;4974059;28;20477;-79
2023/09/21 04:47:49;;;;;;;5.93;4.05;;;13.00;99.90;;;;;;4975198;28;20401;-79
2023/09/21 04:50:19;;;;;;;9.85;5.22;;;13.00;99.90;;;;;;4974560;28;20069;-79
2023/09/21 04:52:45;;;;;;;9.30;4.85;;;13.00;99.90;;;;;;4974655;28;20438;-79
2023/09/21 04:55:11;;;;;;;10.15;5.10;;;12.90;99.90;;;;;;4973706;28;20123;-79
2023/09/21 04:57:37;;;;;;;7.75;4.32;;;12.90;99.90;;;;;;4974767;28;20046;-79
2023/09/21 05:00:10;;;;;;;7.88;4.85;;;12.90;99.90;;;;;;4974339;28;20030;-79
2023/09/21 05:02:36;;;;;;;7.03;5.00;;;12.90;99.90;;;;;;4974364;28;20027;-79
2023/09/21 05:05:02;;;;;;;9.77;5.22;;;12.90;99.90;;;;;;4973165;28;20735;-79
2023/09/21 05:07:28;;;;;;;8.07;4.68;;;12.90;99.90;;;;;;4974181;28;20042;-79
2023/09/21 05:09:54;;;;;;;9.13;5.15;;;12.90;99.90;;;;;;4974372;28;20572;-81
2023/09/21 05:12:20;;;;;;;6.90;4.13;;;12.90;99.90;;;;;;4976382;28;20529;-82
2023/09/21 05:14:46;;;;;;;5.35;4.03;;;12.90;99.90;;;;;;4976663;28;20493;-81
2023/09/21 05:17:12;;;;;;;8.65;4.53;;;12.90;99.90;;;;;;4976573;28;20027;-81
2023/09/21 05:19:38;;;;;;;6.65;3.85;;;12.90;99.90;;;;;;4975434;28;20026;-82
2023/09/21 05:22:04;;;;;;;4.70;3.58;;;12.90;99.90;;;;;;4976393;28;20018;-82
2023/09/21 05:24:30;;;;;;;10.10;4.30;;;12.90;99.90;;;;;;4975577;28;20038;-82
2023/09/21 05:26:56;;;;;;;5.55;4.13;;;12.90;99.90;;;;;;4975748;28;20035;-82
2023/09/21 05:29:23;;;;;;;8.77;4.57;;;13.00;99.90;;;;;;4976299;28;20072;-81
2023/09/21 05:31:49;;;;;;;4.93;3.88;;;13.00;99.90;;;;;;4976165;28;20027;-81
2023/09/21 05:34:16;;;;;;;7.28;4.30;;;13.00;99.90;;;;;;4973924;28;20520;-81
2023/09/21 05:36:45;;;;;;;7.20;4.03;;;13.10;99.90;;;;;;4972387;28;20051;-82
2023/09/21 05:39:11;;;;;;;7.47;4.00;;;13.00;99.90;;;;;;4975765;28;20031;-82
2023/09/21 05:41:37;;;;;;;7.65;4.43;;;13.10;99.90;;;;;;4970574;28;20410;-81
2023/09/21 05:44:03;;;;;;;7.30;4.30;;;13.10;99.90;;;;;;4975995;28;20023;-81
2023/09/21 05:46:28;;;;;;;10.95;4.65;;;13.10;99.90;;;;;;4976592;28;20031;-82
2023/09/21 05:48:54;;;;;;;9.90;4.50;;;13.10;99.90;;;;;;4976740;28;20026;-81
2023/09/21 05:51:20;;;;;;;6.68;3.80;;;13.20;99.90;;;;;;4975340;28;20029;-82
2023/09/21 05:53:46;;;;;;;6.22;3.85;;;13.20;99.90;;;;;;4974806;28;20049;-79
2023/09/21 05:56:11;;;;;;;7.47;4.10;;;13.30;99.90;;;;;;4971544;28;20038;-79
2023/09/21 05:58:37;;;;;;;7.00;4.07;;;13.40;99.90;;;;;;4972941;28;20074;-79
2023/09/21 06:01:03;;;;;;;7.70;3.85;;;13.40;99.90;;;;;;4972732;28;20030;-79
2023/09/21 06:03:29;;;;;;;11.45;9.20;;;13.50;99.90;;;;;;4972105;28;20029;-79
2023/09/21 06:05:55;;;;;;;10.35;6.05;;;13.60;99.90;;;;;;4970965;28;20066;-79
2023/09/21 06:08:21;;;;;;;7.95;4.60;;;13.60;99.90;;;;;;4971797;28;20085;-79
2023/09/21 06:10:46;;;;;;;10.65;5.57;;;13.70;99.90;;;;;;4972241;28;20027;-79
2023/09/21 06:13:12;;;;;;;7.25;4.30;;;13.80;99.90;;;;;;4972593;28;20042;-79
2023/09/21 06:15:48;;;;;;;7.70;4.00;;;13.80;99.90;;;;;;4973191;28;20110;-82
2023/09/21 06:18:17;;;;;;;8.10;4.32;;;13.90;99.90;;;;;;4975530;28;20073;-82
2023/09/21 06:20:43;;;;;;;8.38;4.97;;;14.00;99.90;;;;;;4975499;28;20168;-81
2023/09/21 06:23:09;;;;;;;11.32;4.30;;;14.10;99.90;;;;;;4976089;28;20029;-82
2023/09/21 06:25:35;;;;;;;10.45;4.47;;;14.20;99.90;;;;;;4973091;28;20015;-79
2023/09/21 06:28:02;;;;;;;11.52;3.97;;;14.20;99.90;;;;;;4973996;28;20586;-80
2023/09/21 06:30:27;;;;;;;9.57;4.00;;;14.30;99.90;;;;;;4973494;28;20073;-80
2023/09/21 06:32:55;;;;;;;5.47;3.70;;;14.40;99.90;;;;;;4973220;28;20450;-80
2023/09/21 06:35:23;;;;;;;7.05;4.30;;;14.50;99.90;;;;;;4973411;28;20081;-80
2023/09/21 06:37:51;;;;;;;9.50;3.90;;;14.50;99.90;;;;;;4970755;28;20062;-80
2023/09/21 06:40:17;;;;;;;12.98;4.40;;;14.60;99.90;;;;;;4971643;28;20030;-80
2023/09/21 06:42:42;;;;;;;8.30;3.72;;;14.60;99.90;;;;;;4973349;28;20050;-80
2023/09/21 06:45:08;;;;;;;6.07;3.80;;;14.70;99.90;;;;;;4975605;28;20027;-80
2023/09/21 06:47:33;;;;;;;5.20;3.92;;;14.80;99.90;;;;;;4977929;28;20504;-80
2023/09/21 06:49:59;;;;;;;5.63;4.05;;;14.90;99.90;;;;;;4977805;28;20046;-80
2023/09/21 06:52:25;;;;;;;6.53;3.92;;;15.00;99.90;;;;;;4977290;28;20050;-80
2023/09/21 06:54:52;;;;;;;7.82;4.03;;;15.10;99.90;;;;;;4977208;28;20054;-80
2023/09/21 06:57:23;;;;;;;6.93;4.10;;;15.10;99.90;;;;;;4977024;28;20033;-80
2023/09/21 06:59:49;;;;;;;7.53;3.80;;;15.30;99.90;;;;;;4978487;28;20019;-81
2023/09/21 07:02:15;;;;;;;6.20;3.63;;;15.40;99.90;;;;;;4979812;28;20019;-81
2023/09/21 07:04:40;;;;;;;4.93;3.55;;;15.50;99.90;;;;;;4979623;28;20441;-81
2023/09/21 07:07:07;;;;;;;7.30;3.60;;;15.60;99.90;;;;;;4979496;28;20083;-81
2023/09/21 07:09:36;;;;;;;7.35;3.38;;;15.80;99.90;;;;;;4979740;28;20077;-80
2023/09/21 07:12:02;;;;;;;7.78;3.08;;;15.90;99.90;;;;;;4979521;28;20023;-81
2023/09/21 07:14:28;;;;;;;4.25;2.88;;;16.00;99.90;;;;;;4978252;28;20038;-81
2023/09/21 07:16:55;;;;;;;4.50;2.90;;;16.20;99.90;;;;;;4976222;28;20112;-75
2023/09/21 07:19:20;;;;;;;4.78;2.72;;;16.30;99.90;;;;;;4974165;28;20165;-75
2023/09/21 07:21:46;;;;;;;6.55;2.80;;;16.50;99.90;;;;;;4977723;28;20054;-82
2023/09/21 07:24:11;;;;;;;6.88;2.97;;;16.60;99.90;;;;;;4978850;28;20141;-82
2023/09/21 07:26:37;;;;;;;4.93;2.80;;;16.80;99.90;;;;;;4978148;28;20169;-81
2023/09/21 07:29:05;;;;;;;6.32;2.80;;;16.90;99.90;;;;;;4978986;28;20046;-81
2023/09/21 07:31:33;;;;;;;5.05;2.92;;;17.10;99.90;;;;;;4974015;28;20030;-82
2023/09/21 07:34:02;;;;;;;6.22;2.50;;;17.20;99.90;;;;;;4978829;28;20034;-83
2023/09/21 07:36:27;;;;;;;4.38;2.60;;;17.30;99.90;;;;;;4976737;28;20027;-83
2023/09/21 07:38:53;;;;;;;9.05;3.15;;;17.50;99.90;;;;;;4976987;28;20103;-83
2023/09/21 07:41:19;;;;;;;3.90;2.45;;;17.70;99.90;;;;;;4973558;28;20035;-82
2023/09/21 07:43:45;;;;;;;5.50;2.72;;;17.80;99.90;;;;;;4975846;28;20080;-83
2023/09/21 07:46:11;;;;;;;4.80;2.72;;;17.90;99.90;;;;;;4974876;28;20027;-83
2023/09/21 07:48:36;;;;;;;5.18;2.70;;;18.10;99.90;;;;;;4977354;28;20030;-83
2023/09/21 07:51:06;;;;;;;6.95;2.75;;;18.20;99.90;;;;;;4980110;28;20026;-83
2023/09/21 07:53:32;;;;;;;10.25;2.92;;;18.30;99.90;;;;;;4981050;28;20023;-83
2023/09/21 07:56:10;;;;;;;6.70;3.00;;;18.40;99.90;;;;;;4979517;28;20458;-82
2023/09/21 07:58:35;;;;;;;6.78;2.80;;;18.40;99.90;;;;;;4980629;28;20050;-83
2023/09/21 08:01:01;;;;;;;7.90;2.63;;;18.50;99.90;;;;;;4980510;28;20347;-83
2023/09/21 08:03:26;;;;;;;3.85;2.60;;;18.60;99.90;;;;;;4981432;28;20505;-83
2023/09/21 08:06:01;;;;;;;8.88;3.13;;;18.80;99.90;;;;;;4979796;28;20062;-82
2023/09/21 08:08:26;;;;;;;;;;;18.80;99.90;;;;;;4981250;28;20123;-83
2023/09/21 08:10:56;;;;;;;7.88;3.33;;;18.90;99.90;;;;;;4980219;28;19914;-83
2023/09/21 08:13:24;;;;;;;5.60;2.78;;;19.00;99.90;;;;;;4981455;28;20038;-83
2023/09/21 08:15:49;;;;;;;5.13;2.83;;;19.00;99.90;;;;;;4979705;28;20023;-83
2023/09/21 08:18:15;;;;;;;6.80;2.90;;;19.10;99.90;;;;;;4980303;28;20043;-83
2023/09/21 08:20:40;;;;;;;5.88;2.70;;;19.20;99.90;;;;;;4980811;28;20023;-83
2023/09/21 08:23:06;;;;;;;10.00;2.55;;;19.30;99.90;;;;;;4980681;28;20134;-83
2023/09/21 08:25:33;;;;;;;8.27;2.45;;;19.40;99.90;;;;;;4980760;28;20025;-83
2023/09/21 08:27:59;;;;;;;7.35;2.60;;;19.50;99.90;;;;;;4981897;28;20030;-84
2023/09/21 08:30:25;;;;;;;7.95;3.25;;;19.70;99.90;;;;;;4973119;28;20026;-84
2023/09/21 08:32:51;;;;;;;4.78;2.70;;;19.80;99.90;;;;;;4982233;28;20014;-84
2023/09/21 08:35:17;;;;;;;6.90;2.85;;;19.90;99.90;;;;;;4979993;28;20042;-83
2023/09/21 08:37:43;;;;;;;6.13;2.40;;;20.00;99.90;;;;;;4980571;28;20030;-83
2023/09/21 08:40:09;;;;;;;11.55;3.20;;;20.10;99.90;;;;;;4978020;28;20037;-83
2023/09/21 08:42:36;;;;;;;5.40;2.60;;;20.20;99.90;;;;;;4982659;28;20566;-83
2023/09/21 08:45:08;;;;;;;6.88;2.88;;;20.40;99.90;;;;;;4981431;28;20199;-83
2023/09/21 08:47:33;;;;;;;6.25;2.63;;;20.60;99.90;;;;;;4981967;28;20100;-84
2023/09/21 08:50:02;;;;;;;5.15;2.30;;;20.70;99.90;;;;;;4981959;28;20086;-83
2023/09/21 08:52:32;;;;;;;6.38;2.30;;;20.90;99.90;;;;;;4981923;28;20050;-83
2023/09/21 08:54:58;;;;;;;9.88;2.40;;;21.10;99.90;;;;;;4981794;28;20118;-83
2023/09/21 08:57:24;;;;;;;10.05;2.70;;;21.30;99.90;;;;;;4982831;28;20139;-84
2023/09/21 08:59:54;;;;;;;10.48;2.47;;;21.50;99.90;;;;;;4982385;28;20029;-84
2023/09/21 09:02:19;;;;;;;5.95;2.20;;;21.80;99.90;;;;;;4979494;28;20041;-84
2023/09/21 09:04:45;;;;;;;8.73;2.22;;;22.00;99.90;;;;;;4979292;28;20031;-86
2023/09/21 09:07:12;;;;;;;7.95;2.28;;;22.20;99.90;;;;;;4979598;28;20034;-83
2023/09/21 09:09:39;;;;;;;4.85;2.20;;;22.40;99.90;;;;;;4979132;28;20405;-85
2023/09/21 09:12:23;;;;;;;7.88;2.47;;;22.60;99.90;;;;;;4978103;28;20034;-84
2023/09/21 09:14:54;;;;;;;8.63;2.58;;;22.90;99.90;;;;;;4978533;28;20026;-84
2023/09/21 09:17:20;;;;;;;5.57;2.50;;;23.00;99.90;;;;;;4980114;28;20039;-84
2023/09/21 09:19:48;;;;;;;8.02;2.30;;;23.20;99.90;;;;;;4979717;28;20111;-84
2023/09/21 09:22:17;;;;;;;8.80;2.60;;;23.30;99.90;;;;;;4981669;28;20030;-84
2023/09/21 09:24:50;;;;;;;10.40;1.90;;;23.40;99.90;;;;;;4980009;28;20038;-84
2023/09/21 09:27:16;;;;;;;5.88;2.20;;;23.60;99.90;;;;;;4978526;28;20113;-84
2023/09/21 09:29:52;;;;;;;6.07;2.30;;;23.90;99.90;;;;;;4980495;28;20019;-85
2023/09/21 09:32:23;;;;;;;6.55;2.25;;;24.00;99.90;;;;;;4979357;28;20023;-84
2023/09/21 09:34:48;;;;;;;5.75;2.10;;;24.10;99.90;;;;;;4979707;28;20026;-84
2023/09/21 09:37:15;;;;;;;6.45;1.90;;;24.20;99.90;;;;;;4980687;28;20039;-84
2023/09/21 09:39:44;;;;;;;6.88;2.28;;;24.20;99.90;;;;;;4978852;28;20035;-84
2023/09/21 09:42:13;;;;;;;7.00;2.05;;;24.40;99.90;;;;;;4979887;28;20053;-85
2023/09/21 09:44:44;;;;;;;6.03;1.90;;;24.40;99.90;;;;;;4980239;28;20015;-84
2023/09/21 09:47:12;;;;;;;4.30;1.95;;;24.70;99.90;;;;;;4979887;28;20118;-84
2023/09/21 09:49:40;;;;;;;4.70;2.22;;;24.90;99.90;;;;;;4979698;28;20026;-84
2023/09/21 09:52:09;;;;;;;7.50;2.15;;;25.00;99.90;;;;;;4979812;28;20034;-84
2023/09/21 09:54:36;;;;;;;9.32;2.00;;;25.20;99.90;;;;;;4978239;28;20019;-84
2023/09/21 09:57:01;;;;;;;6.93;2.00;;;25.20;99.90;;;;;;4979652;28;20086;-84
2023/09/21 09:59:28;;;;;;;6.65;2.03;;;25.40;99.90;;;;;;4978457;28;20125;-84
2023/09/21 10:01:55;;;;;;;5.53;1.90;;;25.40;99.90;;;;;;4978394;28;20545;-85
2023/09/21 10:04:21;;;;;;;6.80;1.92;;;25.70;99.90;;;;;;4977078;28;20034;-83
2023/09/21 10:06:47;;;;;;;4.10;2.00;;;25.80;99.90;;;;;;4979782;28;20086;-84
2023/09/21 10:09:14;;;;;;;5.40;1.95;;;26.10;99.90;;;;;;4979687;28;20031;-84
2023/09/21 10:11:45;;;;;;;5.07;2.80;;;26.20;99.90;;;;;;4977652;28;20051;-84
2023/09/21 10:14:13;;;;;;;3.80;1.70;;;26.30;99.90;;;;;;4976994;28;20049;-85
2023/09/21 10:16:39;;;;;;;3.53;1.70;;;26.40;99.90;;;;;;4977879;28;20015;-84
2023/09/21 10:19:14;;;;;;;4.32;1.52;;;26.50;99.90;;;;;;4979887;28;20035;-84
2023/09/21 10:21:43;;;;;;;4.00;1.58;;;26.60;99.90;;;;;;4978264;28;20027;-85
2023/09/21 10:24:16;;;;;;;6.32;1.90;;;26.70;99.90;;;;;;4977524;28;20142;-84
2023/09/21 10:26:49;;;;;;;3.83;1.80;;;26.70;99.90;;;;;;4976371;28;20031;-84
2023/09/21 10:29:19;;;;;;;5.38;1.45;;;26.70;99.90;;;;;;4977808;28;20030;-84
2023/09/21 10:31:51;;;;;;;2.25;1.30;;;26.80;99.90;;;;;;4978338;28;20637;-85
2023/09/21 10:34:19;;;;;;;2.75;1.40;;;26.90;99.90;;;;;;4977104;28;20046;-84
2023/09/21 10:36:50;;;;;;;6.40;1.80;;;27.10;99.90;;;;;;4977742;28;20031;-85
2023/09/21 10:39:24;;;;;;;3.10;1.48;;;27.10;99.90;;;;;;4979907;28;20027;-84
2023/09/21 10:41:52;;;;;;;3.70;1.50;;;27.00;99.90;;;;;;4977631;28;20030;-83
2023/09/21 10:44:56;;;;;;;2.75;1.27;;;27.20;99.90;;;;;;4978740;28;20061;-84
2023/09/21 10:47:28;;;;;;;4.15;1.67;;;27.40;99.90;;;;;;4978192;28;20031;-84
2023/09/21 10:50:06;;;;;;;3.50;1.60;;;27.50;99.90;;;;;;4979459;28;20046;-84
2023/09/21 10:52:32;;;;;;;4.80;1.48;;;27.80;99.90;;;;;;4977057;28;20038;-84
2023/09/21 10:54:58;;;;;;;4.53;1.30;;;27.70;99.90;;;;;;4975045;28;20110;-84
2023/09/21 10:57:26;;;;;;;2.65;1.30;;;27.70;99.90;;;;;;4978593;28;20497;-84
2023/09/21 10:59:53;;;;;;;3.78;1.30;;;27.80;99.90;;;;;;4976601;28;20026;-84
2023/09/21 11:02:19;;;;;;;5.88;1.60;;;27.90;99.90;;;;;;4978263;28;20027;-84
2023/09/21 11:04:46;;;;;;;2.30;1.42;;;27.90;99.90;;;;;;4976360;28;20039;-85
2023/09/21 11:07:12;;;;;;;3.35;1.15;;;28.00;99.90;;;;;;4976338;28;20055;-84
2023/09/21 11:09:38;;;;;;;2.42;1.02;;;28.10;99.90;;;;;;4970641;28;20074;-84
2023/09/21 11:12:06;;;;;;;1.60;1.20;;;28.10;99.90;;;;;;4973729;28;20062;-84
2023/09/21 11:14:31;;;;;;;3.03;1.17;;;28.30;99.90;;;;;;4956118;28;20050;-84
2023/09/21 11:16:57;;;;;;;3.53;1.30;;;28.20;99.90;;;;;;4974717;28;20059;-85
2023/09/21 11:19:23;;;;;;;2.25;1.10;;;28.30;99.90;;;;;;4973843;28;20449;-83
2023/09/21 11:21:49;;;;;;;3.53;1.20;;;28.30;99.90;;;;;;4972570;28;20019;-84
2023/09/21 11:24:15;;;;;;;2.97;1.13;;;28.20;99.90;;;;;;4972190;28;20148;-85
2023/09/21 11:26:54;;;;;;;5.07;2.72;;;28.30;99.90;;;;;;4972181;28;20068;-85
2023/09/21 11:29:20;;;;;;;2.28;1.20;;;28.40;99.90;;;;;;4972792;28;20034;-84
2023/09/21 11:31:49;;;;;;;1.52;1.02;;;28.60;99.90;;;;;;4973869;28;20019;-84
2023/09/21 11:34:16;;;;;;;5.20;1.35;;;28.90;99.90;;;;;;4979099;28;20026;-85
2023/09/21 11:36:42;;;;;;;1.98;0.93;;;28.90;99.90;;;;;;4980206;28;20022;-84
2023/09/21 11:39:11;;;;;;;3.13;1.10;;;29.00;99.90;;;;;;4979086;28;20095;-84
2023/09/21 11:41:39;;;;;;;2.80;1.48;;;29.10;99.90;;;;;;4978678;28;20015;-84
2023/09/21 11:44:06;;;;;;;3.40;1.15;;;29.10;99.90;;;;;;4977788;28;20042;-85
2023/09/21 11:46:32;;;;;;;1.45;1.10;;;29.10;99.90;;;;;;4977066;28;20520;-84
2023/09/21 11:48:58;;;;;;;1.75;1.00;;;29.10;99.90;;;;;;4981068;28;20062;-84
2023/09/21 11:51:29;;;;;;;2.85;1.20;;;29.20;99.90;;;;;;4978968;28;20042;-85
2023/09/21 11:53:58;;;;;;;1.73;1.05;;;29.50;99.90;;;;;;4977741;28;20114;-85
2023/09/21 11:56:24;;;;;;;1.75;1.10;;;29.50;99.90;;;;;;4977903;28;20023;-85
2023/09/21 11:58:58;;;;;;;2.08;1.20;;;29.50;99.90;;;;;;4977666;28;20034;-85
2023/09/21 12:01:27;;;;;;;1.73;0.95;;;29.70;99.90;;;;;;4978009;28;20113;-84
2023/09/21 12:03:53;;;;;;;3.58;0.88;;;29.60;99.90;;;;;;4977945;28;20106;-85
2023/09/21 12:06:19;;;;;;;2.33;1.10;;;29.60;99.90;;;;;;4977944;28;20065;-85
2023/09/21 12:08:45;;;;;;;1.92;1.10;;;29.70;99.90;;;;;;4977203;28;20026;-84
2023/09/21 12:11:11;;;;;;;1.98;1.30;;;29.70;99.90;;;;;;4976394;28;20472;-84
2023/09/21 12:13:37;;;;;;;1.67;0.98;;;29.60;99.90;;;;;;4977647;28;20026;-85
2023/09/21 12:16:03;;;;;;;2.55;1.00;;;29.60;99.90;;;;;;4977335;28;20050;-84
2023/09/21 12:18:29;;;;;;;2.72;1.20;;;29.60;99.90;;;;;;4977099;28;20061;-84
2023/09/21 12:20:57;;;;;;;4.85;1.15;;;29.70;99.90;;;;;;4977571;28;20023;-84
2023/09/21 12:23:24;;;;;;;1.60;1.20;;;29.60;99.80;;;;;;4978327;28;20046;-85
2023/09/21 12:25:50;;;;;;;1.75;1.02;;;29.70;99.80;;;;;;4975641;28;20510;-85
2023/09/21 12:28:17;;;;;;;3.03;1.10;;;29.70;99.90;;;;;;4977038;28;20043;-84
2023/09/21 12:30:44;;;;;;;2.20;1.23;;;29.60;99.90;;;;;;4974418;28;20027;-84
2023/09/21 12:33:11;;;;;;;1.52;1.13;;;29.70;99.90;;;;;;4977923;28;20445;-84
2023/09/21 12:35:36;;;;;;;2.30;1.20;;;29.60;99.90;;;;;;4975908;28;20109;-84
2023/09/21 12:38:02;;;;;;;1.92;0.95;;;29.60;99.90;;;;;;4976774;28;20061;-85
2023/09/21 12:40:28;;;;;;;1.90;1.10;;;29.70;98.80;;;;;;4973147;28;20026;-85
2023/09/21 12:42:54;;;;;;;3.60;0.98;;;29.80;99.30;;;;;;4976462;28;20031;-85
2023/09/21 12:45:21;;;;;;;2.20;1.05;;;29.70;98.10;;;;;;4976411;28;20057;-84
2023/09/21 12:47:47;;;;;;;2.05;0.90;;;29.80;98.60;;;;;;4977456;28;20026;-84